createdAt,value
2022-11-21T00:00:21.587Z,31.73
2022-11-21T00:02:55.433Z,28.77
2022-11-21T00:05:23.524Z,27.73
2022-11-21T00:07:51.305Z,28.57
2022-11-21T00:10:19.200Z,27.23
2022-11-21T00:12:46.996Z,27.53
2022-11-21T00:15:16.103Z,28.63
2022-11-21T00:17:44.190Z,27.40
2022-11-21T00:20:22.796Z,28.67
2022-11-21T00:22:51.150Z,27.17
2022-11-21T00:25:18.976Z,32.93
2022-11-21T00:27:46.714Z,26.37
2022-11-21T00:30:17.520Z,26.83
2022-11-21T00:32:46.650Z,30.83
2022-11-21T00:35:14.815Z,28.30
2022-11-21T00:37:45.573Z,29.90
2022-11-21T00:40:19.291Z,25.70
2022-11-21T00:42:47.170Z,25.70
2022-11-21T00:45:18.327Z,28.70
2022-11-21T00:47:50.395Z,28.00
2022-11-21T00:50:24.601Z,27.30
2022-11-21T00:52:56.341Z,28.13
2022-11-21T00:55:24.119Z,29.80
2022-11-21T00:57:51.966Z,27.93
2022-11-21T01:00:20.193Z,33.17
2022-11-21T01:02:48.053Z,32.50
2022-11-21T01:05:19.915Z,32.40
2022-11-21T01:07:49.397Z,28.67
2022-11-21T01:10:17.254Z,29.87
2022-11-21T01:12:47.907Z,30.13
2022-11-21T01:15:15.677Z,29.03
2022-11-21T01:17:46.539Z,28.57
2022-11-21T01:20:16.238Z,26.33
2022-11-21T01:22:46.651Z,31.23
2022-11-21T01:25:14.441Z,28.50
2022-11-21T01:27:44.396Z,31.40
2022-11-21T01:30:14.417Z,28.10
2022-11-21T01:32:42.216Z,27.43
2022-11-21T01:35:11.634Z,26.03
2022-11-21T01:37:39.367Z,29.43
2022-11-21T01:40:09.807Z,28.47
2022-11-21T01:42:50.881Z,30.77
2022-11-21T01:45:57.648Z,28.73
2022-11-21T01:48:30.891Z,27.97
2022-11-21T01:51:05.209Z,24.43
2022-11-21T01:53:33.858Z,30.27
2022-11-21T01:56:03.826Z,26.97
2022-11-21T01:58:35.220Z,28.57
2022-11-21T02:01:03.780Z,31.90
2022-11-21T02:03:37.120Z,28.57
2022-11-21T02:06:06.787Z,26.17
2022-11-21T02:08:34.721Z,25.20
2022-11-21T02:11:13.245Z,25.50
2022-11-21T02:13:41.297Z,27.47
2022-11-21T02:16:11.938Z,26.70
2022-11-21T02:18:39.752Z,27.33
2022-11-21T02:21:16.393Z,25.30
2022-11-21T02:23:51.350Z,27.70
2022-11-21T02:26:20.605Z,27.23
2022-11-21T02:29:01.222Z,28.87
2022-11-21T02:31:29.027Z,26.57
2022-11-21T02:33:56.847Z,27.20
2022-11-21T02:36:48.547Z,31.73
2022-11-21T02:39:24.653Z,36.00
2022-11-21T02:42:02.232Z,30.27
2022-11-21T02:44:34.969Z,30.07
2022-11-21T02:47:03.804Z,27.47
2022-11-21T02:49:43.209Z,30.83
2022-11-21T02:52:11.094Z,28.03
2022-11-21T02:54:38.931Z,31.30
2022-11-21T02:57:08.056Z,33.37
2022-11-21T02:59:36.217Z,24.80
2022-11-21T03:02:04.085Z,28.67
2022-11-21T03:04:31.851Z,28.30
2022-11-21T03:06:59.717Z,29.73
2022-11-21T03:09:27.951Z,25.70
2022-11-21T03:11:58.437Z,27.40
2022-11-21T03:14:32.947Z,34.87
2022-11-21T03:17:00.762Z,53.73
2022-11-21T03:19:28.970Z,101.90
2022-11-21T03:21:57.028Z,70.03
2022-11-21T03:24:27.612Z,46.33
2022-11-21T03:26:55.607Z,55.40
2022-11-21T03:29:23.721Z,27.63
2022-11-21T03:31:52.783Z,32.67
2022-11-21T03:34:20.602Z,93.27
2022-11-21T03:36:51.505Z,90.43
2022-11-21T03:39:19.283Z,118.67
2022-11-21T03:41:47.250Z,111.43
2022-11-21T03:44:15.131Z,90.37
2022-11-21T03:46:44.826Z,66.60
2022-11-21T03:49:21.722Z,90.67
2022-11-21T03:51:52.525Z,117.57
2022-11-21T03:54:20.339Z,114.27
2022-11-21T03:56:48.060Z,134.87
2022-11-21T03:59:15.857Z,100.67
2022-11-21T04:01:44.079Z,96.97
2022-11-21T04:04:16.217Z,104.67
2022-11-21T04:06:44.390Z,125.70
2022-11-21T04:09:12.764Z,122.57
2022-11-21T04:11:40.550Z,125.27
2022-11-21T04:14:12.750Z,63.10
2022-11-21T04:16:40.508Z,99.53
2022-11-21T04:19:08.678Z,90.07
2022-11-21T04:21:37.938Z,99.83
2022-11-21T04:24:06.649Z,65.00
2022-11-21T04:26:34.459Z,80.23
2022-11-21T04:29:02.588Z,38.73
2022-11-21T04:31:30.518Z,77.23
2022-11-21T04:33:58.693Z,59.57
2022-11-21T04:36:26.818Z,94.00
2022-11-21T04:38:55.906Z,129.83
2022-11-21T04:41:23.809Z,115.27
2022-11-21T04:43:54.405Z,77.60
2022-11-21T04:46:28.216Z,114.17
2022-11-21T04:48:58.669Z,60.63
2022-11-21T04:51:28.029Z,76.73
2022-11-21T04:53:57.144Z,86.93
2022-11-21T04:56:25.313Z,61.33
2022-11-21T04:58:56.685Z,111.73
2022-11-21T05:01:24.439Z,62.97
2022-11-21T05:03:53.634Z,95.37
2022-11-21T05:06:21.736Z,76.97
2022-11-21T05:08:53.465Z,99.47
2022-11-21T05:11:40.920Z,67.47
2022-11-21T05:14:08.708Z,107.30
2022-11-21T05:16:37.064Z,91.00
2022-11-21T05:19:04.882Z,75.77
2022-11-21T05:21:32.641Z,103.57
2022-11-21T05:24:00.889Z,75.67
2022-11-21T05:26:29.974Z,77.90
2022-11-21T05:28:57.710Z,67.83
2022-11-21T05:31:25.865Z,57.43
2022-11-21T05:33:59.778Z,45.00
2022-11-21T05:36:27.891Z,68.07
2022-11-21T05:38:55.625Z,48.17
2022-11-21T05:41:23.492Z,77.47
2022-11-21T05:43:51.671Z,76.70
2022-11-21T05:46:21.682Z,64.13
2022-11-21T05:48:51.050Z,70.87
2022-11-21T05:51:19.682Z,85.73
2022-11-21T05:53:48.305Z,79.87
2022-11-21T05:56:17.574Z,67.00
2022-11-21T05:58:45.651Z,73.23
2022-11-21T06:01:15.980Z,48.33
2022-11-21T06:03:43.393Z,53.33
2022-11-21T06:06:12.683Z,45.20
2022-11-21T06:08:42.301Z,84.73
2022-11-21T06:11:11.941Z,79.97
2022-11-21T06:13:41.398Z,81.57
2022-11-21T06:16:11.025Z,64.47
2022-11-21T06:18:45.129Z,66.27
2022-11-21T06:21:15.287Z,58.97
2022-11-21T06:23:43.760Z,69.47
2022-11-21T06:26:14.387Z,50.10
2022-11-21T06:28:43.454Z,45.50
2022-11-21T06:31:12.797Z,50.83
2022-11-21T06:33:42.957Z,57.07
2022-11-21T06:36:12.673Z,42.90
2022-11-21T06:38:40.829Z,31.93
2022-11-21T06:41:12.016Z,58.50
2022-11-21T06:43:46.047Z,44.27
2022-11-21T06:46:15.300Z,41.80
2022-11-21T06:48:44.889Z,37.23
2022-11-21T06:51:17.148Z,30.97
2022-11-21T06:53:55.589Z,33.03
2022-11-21T06:56:24.252Z,37.97
2022-11-21T06:58:54.339Z,50.03
2022-11-21T07:01:22.541Z,29.90
2022-11-21T07:04:06.374Z,26.83
2022-11-21T07:06:35.993Z,29.67
2022-11-21T07:11:57.447Z,29.37
2022-11-21T07:14:26.948Z,43.83
2022-11-21T07:16:57.378Z,23.73
2022-11-21T07:19:29.311Z,25.33
2022-11-21T07:21:57.324Z,25.73
2022-11-21T07:24:25.153Z,26.93
2022-11-21T07:26:55.758Z,25.83
2022-11-21T07:29:25.646Z,25.50
2022-11-21T07:31:56.697Z,23.93
2022-11-21T07:34:25.894Z,26.23
2022-11-21T07:36:53.685Z,24.67
2022-11-21T07:39:21.806Z,24.23
2022-11-21T07:41:49.603Z,24.10
2022-11-21T07:44:17.348Z,23.97
2022-11-21T07:46:46.178Z,26.17
2022-11-21T07:49:13.978Z,24.70
2022-11-21T07:51:43.059Z,20.80
2022-11-21T07:54:11.242Z,21.90
2022-11-21T07:56:41.202Z,22.00
2022-11-21T07:59:08.969Z,22.27
2022-11-21T08:01:42.678Z,22.17
2022-11-21T08:04:13.099Z,21.40
2022-11-21T08:06:42.157Z,21.07
2022-11-21T08:09:11.217Z,21.37
2022-11-21T08:11:38.957Z,23.87
2022-11-21T08:14:06.758Z,19.33
2022-11-21T08:16:37.572Z,21.17
2022-11-21T08:19:06.585Z,22.23
2022-11-21T08:21:34.335Z,21.03
2022-11-21T08:24:02.964Z,23.47
2022-11-21T08:26:32.121Z,19.63
2022-11-21T08:29:00.313Z,22.57
2022-11-21T08:31:28.531Z,26.00
2022-11-21T08:33:57.337Z,29.93
2022-11-21T08:36:29.893Z,23.93
2022-11-21T08:38:58.954Z,27.30
2022-11-21T08:41:44.640Z,23.23
2022-11-21T08:44:14.342Z,27.50
2022-11-21T08:46:42.720Z,28.90
2022-11-21T08:49:10.909Z,28.53
2022-11-21T08:51:38.843Z,29.10
2022-11-21T08:54:07.087Z,29.03
2022-11-21T08:56:37.430Z,33.83
2022-11-21T08:59:05.276Z,36.53
2022-11-21T09:01:34.428Z,39.70
2022-11-21T09:04:02.615Z,37.20
2022-11-21T09:06:30.739Z,28.70
2022-11-21T09:08:58.670Z,34.40
2022-11-21T09:11:27.025Z,43.97
2022-11-21T09:14:12.863Z,29.87
2022-11-21T09:17:02.270Z,29.83
2022-11-21T09:19:37.700Z,32.87
2022-11-21T09:22:05.513Z,30.03
2022-11-21T09:24:42.420Z,31.67
2022-11-21T09:27:10.209Z,28.83
2022-11-21T09:29:39.227Z,34.00
2022-11-21T09:32:08.317Z,39.13
2022-11-21T09:34:36.237Z,28.20
2022-11-21T09:37:04.378Z,29.20
2022-11-21T09:39:35.066Z,28.50
2022-11-21T09:42:32.726Z,23.93
2022-11-21T09:45:10.428Z,26.57
2022-11-21T09:47:43.767Z,30.57
2022-11-21T09:50:28.153Z,26.00
2022-11-21T09:53:02.403Z,24.07
2022-11-21T09:55:41.386Z,24.30
2022-11-21T09:58:20.260Z,25.23
2022-11-21T10:01:04.452Z,25.13
2022-11-21T10:03:42.229Z,28.03
2022-11-21T10:06:20.295Z,21.77
2022-11-21T10:09:01.733Z,26.10
2022-11-21T10:12:01.577Z,24.23
2022-11-21T10:14:44.497Z,23.40
2022-11-21T10:19:47.689Z,24.93
2022-11-21T10:22:29.366Z,23.03
2022-11-21T10:25:02.455Z,26.20
2022-11-21T10:27:35.786Z,28.30
2022-11-21T10:30:06.309Z,29.00
2022-11-21T10:32:41.381Z,24.03
2022-11-21T10:37:35.150Z,23.80
2022-11-21T10:40:18.859Z,25.60
2022-11-21T10:42:54.325Z,25.07
2022-11-21T10:45:24.469Z,28.73
2022-11-21T10:47:54.310Z,23.57
2022-11-21T10:50:33.589Z,24.20
2022-11-21T10:53:25.641Z,27.03
2022-11-21T10:56:02.642Z,27.00
2022-11-21T10:58:49.292Z,35.13
2022-11-21T11:01:25.725Z,30.53
2022-11-21T11:06:59.846Z,27.37
2022-11-21T11:11:40.225Z,25.60
2022-11-21T11:14:15.557Z,28.63
2022-11-21T11:16:47.997Z,26.73
2022-11-21T11:19:29.787Z,28.53
2022-11-21T11:22:03.418Z,30.20
2022-11-21T11:24:31.279Z,29.03
2022-11-21T11:27:05.421Z,24.57
2022-11-21T11:29:35.509Z,28.10
2022-11-21T11:32:06.029Z,32.40
2022-11-21T11:34:40.243Z,29.87
2022-11-21T11:39:36.151Z,20.77
2022-11-21T11:42:58.496Z,22.37
2022-11-21T11:46:15.406Z,22.37
2022-11-21T11:49:16.739Z,25.27
2022-11-21T11:51:39.526Z,21.33
2022-11-21T11:54:13.447Z,23.53
2022-11-21T11:56:47.377Z,21.53
2022-11-21T11:59:22.307Z,21.20
2022-11-21T12:01:59.353Z,19.57
2022-11-21T12:04:31.078Z,22.30
2022-11-21T12:10:06.617Z,21.50
2022-11-21T12:15:16.352Z,15.43
2022-11-21T12:17:50.042Z,16.07
2022-11-21T12:20:22.425Z,18.57
2022-11-21T12:22:53.308Z,14.33
2022-11-21T12:25:25.558Z,15.30
2022-11-21T12:27:56.056Z,13.93
2022-11-21T12:30:49.829Z,13.87
2022-11-21T12:33:23.440Z,11.87
2022-11-21T12:36:22.854Z,13.17
2022-11-21T12:39:12.871Z,11.43
2022-11-21T12:42:07.054Z,8.83
2022-11-21T12:47:25.994Z,8.90
2022-11-21T12:50:21.841Z,9.87
2022-11-21T12:53:15.257Z,8.47
2022-11-21T12:55:43.293Z,7.90
2022-11-21T12:58:19.455Z,9.30
2022-11-21T13:03:30.603Z,9.63
2022-11-21T13:05:59.526Z,30.33
2022-11-21T13:16:39.878Z,10.33
2022-11-21T13:22:05.555Z,7.33
2022-11-21T13:24:59.467Z,6.60
2022-11-21T13:27:38.074Z,11.43
2022-11-21T13:32:39.182Z,5.77
2022-11-21T13:35:48.057Z,9.80
2022-11-21T13:38:20.727Z,10.93
2022-11-21T13:41:02.513Z,7.70
2022-11-21T13:43:33.705Z,11.27
2022-11-21T13:51:41.814Z,9.67
2022-11-21T13:55:00.632Z,9.10
2022-11-21T13:57:41.131Z,7.23
2022-11-21T14:00:30.322Z,5.43
2022-11-21T14:06:19.819Z,10.67
2022-11-21T14:09:08.684Z,10.80
2022-11-21T14:11:48.367Z,10.40
2022-11-21T14:14:26.104Z,6.53
2022-11-21T14:17:00.919Z,10.40
2022-11-21T14:19:31.236Z,9.90
2022-11-21T14:24:20.606Z,8.53
2022-11-21T14:29:41.863Z,13.93
2022-11-21T14:32:19.361Z,10.30
2022-11-21T14:34:49.916Z,12.20
2022-11-21T14:37:23.918Z,10.13
2022-11-21T14:39:57.096Z,11.30
2022-11-21T14:45:09.595Z,7.20
2022-11-21T14:47:47.189Z,9.83
2022-11-21T14:55:31.009Z,6.17
2022-11-21T15:03:30.452Z,7.50
2022-11-21T15:06:06.202Z,8.70
2022-11-21T15:09:33.368Z,9.77
2022-11-21T15:11:31.013Z,9.90
2022-11-21T15:14:16.908Z,10.77
2022-11-21T15:19:12.205Z,12.87
2022-11-21T15:21:48.331Z,11.13
2022-11-21T15:24:28.725Z,6.00
2022-11-21T15:26:56.652Z,9.50
2022-11-21T15:29:24.608Z,8.90
2022-11-21T15:32:12.613Z,10.17
2022-11-21T15:34:45.281Z,7.03
2022-11-21T15:37:17.042Z,8.53
2022-11-21T15:39:45.932Z,7.40
2022-11-21T15:42:30.117Z,8.60
2022-11-21T15:44:59.997Z,10.13
2022-11-21T15:47:28.488Z,10.97
2022-11-21T15:50:00.281Z,15.57
2022-11-21T15:52:30.521Z,8.20
2022-11-21T15:54:58.329Z,8.77
2022-11-21T15:57:26.959Z,12.97
2022-11-21T16:02:28.969Z,12.43
2022-11-21T16:04:57.079Z,11.57
2022-11-21T16:17:56.845Z,9.30
2022-11-21T16:20:24.689Z,7.97
2022-11-21T16:22:52.426Z,11.27
2022-11-21T16:25:23.064Z,12.20
2022-11-21T16:27:51.080Z,10.30
2022-11-21T16:30:19.236Z,11.50
2022-11-21T16:32:51.106Z,8.93
2022-11-21T16:35:20.298Z,11.80
2022-11-21T16:37:48.022Z,12.20
2022-11-21T16:40:16.231Z,9.77
2022-11-21T16:42:44.118Z,13.07
2022-11-21T16:45:12.016Z,12.20
2022-11-21T16:47:43.098Z,13.67
2022-11-21T16:50:19.785Z,13.33
2022-11-21T16:52:47.569Z,9.63
2022-11-21T16:55:17.228Z,11.77
2022-11-21T16:57:45.127Z,10.07
2022-11-21T17:00:13.531Z,19.00
2022-11-21T17:02:41.744Z,10.27
2022-11-21T17:05:10.201Z,10.20
2022-11-21T17:07:39.438Z,15.10
2022-11-21T17:10:10.319Z,11.20
2022-11-21T17:12:39.010Z,8.27
2022-11-21T17:15:09.031Z,8.37
2022-11-21T17:17:37.341Z,11.00
2022-11-21T17:20:05.865Z,8.10
2022-11-21T17:22:34.013Z,8.00
2022-11-21T17:25:05.748Z,10.83
2022-11-21T17:27:33.881Z,9.97
2022-11-21T17:30:01.763Z,12.47
2022-11-21T17:32:29.514Z,10.10
2022-11-21T17:34:57.425Z,9.17
2022-11-21T17:37:25.608Z,9.07
2022-11-21T17:39:53.835Z,11.40
2022-11-21T17:42:23.978Z,10.03
2022-11-21T17:44:51.704Z,10.70
2022-11-21T17:47:19.645Z,9.63
2022-11-21T17:49:49.913Z,11.03
2022-11-21T17:52:17.885Z,11.77
2022-11-21T17:54:47.008Z,11.13
2022-11-21T17:57:14.874Z,9.50
2022-11-21T17:59:47.075Z,7.10
2022-11-21T18:02:18.097Z,7.93
2022-11-21T18:04:47.156Z,7.13
2022-11-21T18:07:16.166Z,8.33
2022-11-21T18:09:50.159Z,8.97
2022-11-21T18:12:18.030Z,6.70
2022-11-21T18:14:49.006Z,9.70
2022-11-21T18:17:17.569Z,7.20
2022-11-21T18:19:50.665Z,8.53
2022-11-21T18:22:26.313Z,6.97
2022-11-21T18:24:57.429Z,8.93
2022-11-21T18:27:27.774Z,7.83
2022-11-21T18:29:56.957Z,8.33
2022-11-21T18:32:25.065Z,8.27
2022-11-21T18:34:52.793Z,7.70
2022-11-21T18:37:33.186Z,8.37
2022-11-21T18:42:14.655Z,8.47
2022-11-21T18:44:42.385Z,13.83
2022-11-21T18:47:20.032Z,8.87
2022-11-21T18:49:49.271Z,9.53
2022-11-21T18:52:17.058Z,10.50
2022-11-21T18:54:49.601Z,10.53
2022-11-21T18:57:18.748Z,9.83
2022-11-21T18:59:48.384Z,8.47
2022-11-21T19:02:16.713Z,7.10
2022-11-21T19:04:44.911Z,6.57
2022-11-21T19:07:12.746Z,8.27
2022-11-21T19:09:40.562Z,7.43
2022-11-21T19:12:17.513Z,7.87
2022-11-21T19:14:46.597Z,8.33
2022-11-21T19:17:14.312Z,8.90
2022-11-21T19:19:42.067Z,6.43
2022-11-21T19:22:09.991Z,8.53
2022-11-21T19:24:37.753Z,6.53
2022-11-21T19:27:08.736Z,6.43
2022-11-21T19:29:36.492Z,10.43
2022-11-21T19:32:06.095Z,9.73
2022-11-21T19:34:33.841Z,9.33
2022-11-21T19:37:01.978Z,11.30
2022-11-21T19:39:31.005Z,8.03
2022-11-21T19:44:16.253Z,11.40
2022-11-21T19:46:44.037Z,10.43
2022-11-21T19:49:13.385Z,9.17
2022-11-21T19:51:42.714Z,7.93
2022-11-21T19:54:12.831Z,7.93
2022-11-21T19:56:40.804Z,5.57
2022-11-21T19:59:10.985Z,6.77
2022-11-21T20:04:06.506Z,4.53
2022-11-21T20:06:36.173Z,7.10
2022-11-21T20:11:17.794Z,6.93
2022-11-21T20:13:48.818Z,5.73
2022-11-21T20:16:22.218Z,12.50
2022-11-21T20:18:50.907Z,9.57
2022-11-21T20:21:21.495Z,7.87
2022-11-21T20:23:53.110Z,7.57
2022-11-21T20:26:24.025Z,7.93
2022-11-21T20:28:59.101Z,15.27
2022-11-21T20:31:29.046Z,9.53
2022-11-21T20:36:14.294Z,8.47
2022-11-21T20:40:55.606Z,5.37
2022-11-21T20:43:29.719Z,7.33
2022-11-21T20:46:16.980Z,6.20
2022-11-21T20:48:48.010Z,6.63
2022-11-21T20:54:04.334Z,9.67
2022-11-21T20:56:35.207Z,10.67
2022-11-21T20:59:03.557Z,7.43
2022-11-21T21:01:31.733Z,6.13
2022-11-21T21:04:02.023Z,10.37
2022-11-21T21:06:29.843Z,7.17
2022-11-21T21:09:03.315Z,9.73
2022-11-21T21:11:50.984Z,7.23
2022-11-21T21:14:20.311Z,6.10
2022-11-21T21:16:48.139Z,8.33
2022-11-21T21:19:16.161Z,9.63
2022-11-21T21:21:44.338Z,11.40
2022-11-21T21:24:13.166Z,6.53
2022-11-21T21:26:43.643Z,7.20
2022-11-21T21:29:12.996Z,7.50
2022-11-21T21:31:48.582Z,9.80
2022-11-21T21:34:18.856Z,6.70
2022-11-21T21:36:47.031Z,5.90
2022-11-21T21:39:17.501Z,8.93
2022-11-21T21:41:46.426Z,7.00
2022-11-21T21:44:18.493Z,6.97
2022-11-21T21:46:47.582Z,13.40
2022-11-21T21:49:18.202Z,11.03
2022-11-21T21:51:48.560Z,6.17
2022-11-21T21:54:18.452Z,5.43
2022-11-21T21:59:08.278Z,8.00
2022-11-21T22:01:36.548Z,10.30
2022-11-21T22:04:06.137Z,6.80
2022-11-21T22:08:47.538Z,5.63
2022-11-21T22:11:17.222Z,7.30
2022-11-21T22:13:46.774Z,6.23
2022-11-21T22:16:14.981Z,6.87
2022-11-21T22:18:43.154Z,6.70
2022-11-21T22:21:15.254Z,8.20
2022-11-21T22:24:02.946Z,7.27
2022-11-21T22:26:33.227Z,8.20
2022-11-21T22:31:16.182Z,9.20
2022-11-21T22:33:45.022Z,6.73
2022-11-21T22:36:14.354Z,6.23
2022-11-21T22:38:48.830Z,5.43
2022-11-21T22:41:18.745Z,9.73
2022-11-21T22:43:51.077Z,7.13
2022-11-21T22:46:20.601Z,8.00
2022-11-21T22:48:50.885Z,6.33
2022-11-21T22:51:21.505Z,7.27
2022-11-21T22:53:49.745Z,5.33
2022-11-21T22:56:19.124Z,8.43
2022-11-21T22:58:47.432Z,5.43
2022-11-21T23:01:17.833Z,4.67
2022-11-21T23:03:47.616Z,9.07
2022-11-21T23:06:20.775Z,6.27
2022-11-21T23:08:49.248Z,11.43
2022-11-21T23:24:29.665Z,6.90
2022-11-21T23:29:12.989Z,6.03
2022-11-21T23:31:41.433Z,5.97
2022-11-21T23:34:12.329Z,5.43
2022-11-21T23:36:40.217Z,8.47
2022-11-21T23:39:09.102Z,5.27
2022-11-21T23:43:51.257Z,6.03
2022-11-21T23:46:19.044Z,4.97
2022-11-21T23:48:46.958Z,7.80
2022-11-21T23:51:16.329Z,8.63
2022-11-21T23:53:44.102Z,7.67
2022-11-21T23:56:12.233Z,9.43
2022-11-21T23:58:40.387Z,5.83
